Time;durP1;ratioP1;P1;durP2;ratioP2;P2;SDS_P1;SDS_P2;PMS_P1;PMS_P2;Temp;Humidity;BMP_temperature;BMP_pressure;BME280_temperature;BME280_humidity;BME280_pressure;Samples;Min_cycle;Max_cycle;Signal;HPM_P1;HPM_P2
2021/09/27 00:01:09;;;;;;;4.85;3.58;;;;;;;24.88;48.19;101287.03;4995187;28;20113;-62
2021/09/27 00:03:35;;;;;;;10.40;3.30;;;;;;;24.88;48.29;101296.09;4995647;28;20030;-62
2021/09/27 00:06:01;;;;;;;8.40;3.78;;;;;;;24.86;48.51;101291.88;4994896;28;20030;-62
2021/09/27 00:08:27;;;;;;;11.90;3.85;;;;;;;24.86;48.55;101289.97;4995592;28;20443;-62
2021/09/27 00:10:59;;;;;;;4.70;3.03;;;;;;;24.85;48.88;101287.44;4995547;28;20395;-62
2021/09/27 00:13:28;;;;;;;8.73;4.25;;;;;;;24.84;48.56;101289.34;4994289;28;20481;-62
2021/09/27 00:15:55;;;;;;;6.85;3.50;;;;;;;24.84;48.74;101289.34;4995294;28;20053;-62
2021/09/27 00:18:21;;;;;;;7.30;3.70;;;;;;;24.85;48.30;101288.28;4995121;28;20064;-62
2021/09/27 00:20:49;;;;;;;7.70;3.90;;;;;;;24.85;48.40;101288.28;4994140;28;20022;-62
2021/09/27 00:23:16;;;;;;;8.75;4.20;;;;;;;24.81;49.21;101287.03;4995292;28;20027;-62
2021/09/27 00:25:42;;;;;;;7.13;4.90;;;;;;;24.86;49.02;101289.13;4993819;28;20129;-62
2021/09/27 00:28:08;;;;;;;9.25;4.68;;;;;;;24.84;49.25;101297.59;4994084;28;20125;-62
2021/09/27 00:30:34;;;;;;;5.32;4.00;;;;;;;24.83;49.07;101295.88;4994050;28;20115;-62
2021/09/27 00:33:00;;;;;;;5.35;3.75;;;;;;;24.76;48.80;101281.28;4994994;28;20027;-62
2021/09/27 00:35:28;;;;;;;9.40;4.28;;;;;;;24.80;48.81;101296.31;4994004;28;20030;-62
2021/09/27 00:37:56;;;;;;;9.52;3.85;;;;;;;24.78;49.08;101292.91;4994869;28;20030;-62
2021/09/27 00:40:28;;;;;;;9.55;3.75;;;;;;;24.79;48.88;101294.59;4994911;28;20066;-62
2021/09/27 00:42:54;;;;;;;5.07;3.35;;;;;;;24.81;49.21;101291.66;4994539;28;20026;-62
2021/09/27 00:45:23;;;;;;;7.50;4.03;;;;;;;24.77;49.42;101280.25;4993939;28;20056;-62
2021/09/27 00:47:49;;;;;;;6.82;4.00;;;;;;;24.76;49.46;101286.78;4993803;28;20026;-62
2021/09/27 00:50:16;;;;;;;7.28;3.53;;;;;;;24.74;49.12;101280.66;4993460;28;20045;-62
2021/09/27 00:52:42;;;;;;;7.03;4.07;;;;;;;24.73;49.38;101279.00;4977396;28;20085;-62
2021/09/27 00:55:11;;;;;;;5.13;3.13;;;;;;;24.74;49.17;101280.66;4994453;28;20439;-62
2021/09/27 00:57:36;;;;;;;6.90;3.90;;;;;;;24.75;49.04;101282.38;4993904;28;20030;-62
2021/09/27 01:00:05;;;;;;;6.25;4.05;;;;;;;24.73;49.03;101281.75;4994629;28;20432;-62
2021/09/27 01:02:32;;;;;;;10.93;3.60;;;;;;;24.70;49.19;101279.41;4993741;28;20431;-62
2021/09/27 01:04:58;;;;;;;5.70;3.67;;;;;;;24.70;49.15;101268.47;4994453;28;20029;-62
2021/09/27 01:07:31;;;;;;;6.38;3.30;;;;;;;24.73;49.84;101272.66;4994550;28;20038;-62
2021/09/27 01:10:32;;;;;;;5.53;3.33;;;;;;;24.73;49.38;101262.56;4993104;28;20037;-63
2021/09/27 01:13:19;;;;;;;6.45;3.95;;;;;;;24.70;49.28;101262.97;4993729;28;20053;-62
2021/09/27 01:16:00;;;;;;;6.13;3.50;;;;;;;24.68;49.33;101259.56;4994664;28;20122;-62
2021/09/27 01:18:46;;;;;;;5.63;4.57;;;;;;;24.70;49.37;101259.38;4993311;28;20467;-62
2021/09/27 01:21:21;;;;;;;8.63;4.78;;;;;;;24.69;49.31;101264.03;4994372;28;20027;-62
2021/09/27 01:24:01;;;;;;;14.50;4.20;;;;;;;24.68;49.53;101256.84;4993096;28;20030;-62
2021/09/27 01:26:36;;;;;;;7.80;4.03;;;;;;;24.72;49.79;101260.84;4992987;28;20105;-62
2021/09/27 01:29:10;;;;;;;6.03;4.20;;;;;;;24.72;49.75;101266.34;4992784;28;20037;-62
2021/09/27 01:31:54;;;;;;;6.13;3.97;;;;;;;24.76;50.15;101278.53;4993187;28;20030;-62
2021/09/27 01:34:40;;;;;;;8.35;3.67;;;;;;;24.77;49.78;101268.44;4993976;28;20145;-62
2021/09/27 01:37:15;;;;;;;6.88;3.45;;;;;;;24.77;49.82;101269.28;4992936;28;20027;-62
2021/09/27 01:39:57;;;;;;;8.93;3.30;;;;;;;24.79;49.46;101264.47;4993993;28;20023;-62
2021/09/27 01:42:41;;;;;;;4.88;3.70;;;;;;;24.78;49.63;101254.53;4993891;28;20018;-62
2021/09/27 01:45:12;;;;;;;5.78;3.58;;;;;;;24.81;49.35;101259.63;4992989;28;20072;-62
2021/09/27 01:47:44;;;;;;;6.13;3.15;;;;;;;24.85;49.56;101238.09;4976807;28;20030;-63
2021/09/27 01:50:17;;;;;;;8.68;3.28;;;;;;;24.77;49.65;101235.53;4992869;28;20026;-62
2021/09/27 01:52:48;;;;;;;8.10;3.35;;;;;;;24.86;49.98;101251.59;4994108;28;20027;-63
2021/09/27 01:55:27;;;;;;;6.80;3.00;;;;;;;24.89;49.61;101244.84;4992901;28;20058;-62
2021/09/27 01:58:04;;;;;;;5.28;3.80;;;;;;;24.86;49.34;101246.13;4976483;28;20030;-62
2021/09/27 02:00:49;;;;;;;4.78;3.50;;;;;;;24.86;49.04;101239.78;4992876;28;20523;-62
2021/09/27 02:03:26;;;;;;;8.52;4.07;;;;;;;24.82;49.67;101233.88;4993017;28;20387;-62
2021/09/27 02:06:03;;;;;;;5.85;3.25;;;;;;;24.90;49.66;101241.06;4992939;28;20140;-62
2021/09/27 02:08:51;;;;;;;5.88;3.60;;;;;;;24.86;48.98;101232.41;4992915;28;20061;-62
2021/09/27 02:11:23;;;;;;;5.22;3.47;;;;;;;24.90;49.06;101230.91;4993824;28;20446;-62
2021/09/27 02:14:06;;;;;;;5.90;4.05;;;;;;;24.92;49.32;101227.13;4993749;28;20053;-62
2021/09/27 02:17:15;;;;;;;5.30;3.83;;;;;;;24.88;49.19;101221.22;4993627;28;20510;-62
2021/09/27 02:19:49;;;;;;;5.47;3.42;;;;;;;24.93;49.67;101228.84;4983285;28;20379;-62
2021/09/27 02:22:41;;;;;;;5.93;4.35;;;;;;;24.94;49.64;101225.00;4992572;28;20081;-62
2021/09/27 02:25:31;;;;;;;4.35;3.28;;;;;;;24.92;49.25;101224.41;4959926;28;20038;-62
2021/09/27 02:27:57;;;;;;;5.57;3.42;;;;;;;24.92;49.53;101228.00;4996191;28;20042;-62
2021/09/27 02:30:33;;;;;;;5.07;3.50;;;;;;;24.91;49.06;101220.81;4997156;28;20076;-62
2021/09/27 02:33:25;;;;;;;4.05;2.70;;;;;;;24.91;49.16;101220.81;4997417;28;20487;-62
2021/09/27 02:35:55;;;;;;;3.22;2.92;;;;;;;24.85;49.32;101217.03;4995941;28;20107;-62
2021/09/27 02:38:29;;;;;;;7.32;2.80;;;;;;;24.80;49.24;101208.59;4996387;28;20044;-62
2021/09/27 02:40:58;;;;;;;9.13;3.47;;;;;;;24.86;49.51;101205.00;4979817;28;20050;-62
2021/09/27 02:43:25;;;;;;;8.95;3.70;;;;;;;24.89;49.06;101215.56;4996104;28;20536;-62
2021/09/27 02:45:50;;;;;;;4.63;3.58;;;;;;;24.89;49.02;101207.34;4996084;28;20386;-62
2021/09/27 02:48:29;;;;;;;4.10;3.35;;;;;;;24.86;49.28;101207.75;4995946;28;20026;-62
2021/09/27 02:50:55;;;;;;;7.50;3.33;;;;;;;24.86;49.24;101201.44;4995745;28;20054;-62
2021/09/27 02:53:21;;;;;;;7.43;3.65;;;;;;;24.87;49.63;101209.41;4995690;28;20018;-62
2021/09/27 02:55:46;;;;;;;6.35;3.13;;;;;;;24.85;49.37;101206.06;4997068;28;20030;-62
2021/09/27 02:58:34;;;;;;;4.72;3.28;;;;;;;24.83;49.56;101207.31;4996845;28;20034;-62
2021/09/27 03:01:08;;;;;;;8.85;3.15;;;;;;;24.82;49.31;101201.00;4996392;28;20053;-62
2021/09/27 03:03:49;;;;;;;6.40;3.60;;;;;;;24.83;49.46;101193.63;4995863;28;20490;-62
2021/09/27 03:06:38;;;;;;;6.20;3.03;;;;;;;24.81;49.03;101193.84;4996852;28;20501;-62
2021/09/27 03:09:05;;;;;;;6.88;3.22;;;;;;;24.85;49.42;101205.22;4996735;28;20041;-62
2021/09/27 03:12:00;;;;;;;5.30;3.22;;;;;;;24.84;49.22;101200.81;4995421;28;20026;-62
2021/09/27 03:15:07;;;;;;;4.22;3.17;;;;;;;24.86;49.42;101202.28;4996490;28;20362;-62
2021/09/27 03:17:45;;;;;;;4.85;2.70;;;;;;;24.87;49.51;101198.44;4995955;28;20115;-62
2021/09/27 03:20:17;;;;;;;5.63;3.17;;;;;;;24.88;49.75;101202.88;4995270;28;20391;-63
2021/09/27 03:23:00;;;;;;;5.97;3.92;;;;;;;24.88;49.95;101194.66;4995134;28;20049;-62
2021/09/27 03:25:51;;;;;;;8.65;3.85;;;;;;;24.92;49.96;101194.25;4997766;28;20033;-62
2021/09/27 03:28:48;;;;;;;7.68;3.10;;;;;;;24.94;49.42;101186.63;5015821;28;20079;-62
2021/09/27 03:31:16;;;;;;;7.97;3.65;;;;;;;24.96;49.38;101188.09;4962408;28;20047;-62
2021/09/27 03:33:54;;;;;;;6.63;3.00;;;;;;;25.00;49.77;101194.88;5015597;28;20033;-62
2021/09/27 03:36:48;;;;;;;4.70;2.80;;;;;;;25.01;49.77;101193.81;4997269;28;20025;-62
2021/09/27 03:39:28;;;;;;;5.32;3.35;;;;;;;25.01;49.48;101198.44;4962263;28;20043;-63
2021/09/27 03:42:03;;;;;;;5.70;3.40;;;;;;;25.05;50.05;101202.44;4998234;28;20032;-62
2021/09/27 03:45:04;;;;;;;7.10;3.75;;;;;;;25.05;49.71;101195.06;5015810;28;20048;-62
2021/09/27 03:47:36;;;;;;;6.80;3.33;;;;;;;25.06;49.55;101190.41;5007199;28;20038;-62
2021/09/27 03:50:08;;;;;;;;;;;;;;;25.07;49.69;101197.59;4998310;28;20482;-62
2021/09/27 03:52:53;;;;;;;4.90;3.15;;;;;;;25.07;49.24;101197.59;5014181;28;19914;-62
2021/09/27 03:55:23;;;;;;;6.43;3.53;;;;;;;25.07;49.32;101203.09;4997904;28;20072;-61
2021/09/27 03:57:54;;;;;;;7.45;4.63;;;;;;;25.06;49.86;101199.50;4997706;28;20092;-62
2021/09/27 04:00:23;;;;;;;6.93;3.97;;;;;;;25.05;49.41;101195.06;4997956;28;20553;-62
2021/09/27 04:03:03;;;;;;;7.72;3.50;;;;;;;25.04;49.83;101193.38;4997928;28;20029;-62
2021/09/27 04:05:51;;;;;;;7.28;3.78;;;;;;;25.02;49.40;101202.84;4997759;28;20493;-62
2021/09/27 04:08:36;;;;;;;5.97;4.10;;;;;;;25.00;50.04;101197.59;4984136;28;20041;-62
2021/09/27 04:11:15;;;;;;;8.57;3.97;;;;;;;25.00;49.58;101202.25;5014938;28;20026;-62
2021/09/27 04:13:49;;;;;;;6.20;3.42;;;;;;;25.00;49.63;101196.75;4981305;28;20061;-62
2021/09/27 04:16:24;;;;;;;4.72;3.33;;;;;;;24.98;49.95;101196.13;4997529;28;20478;-63
2021/09/27 04:18:52;;;;;;;7.40;3.88;;;;;;;25.00;49.72;101192.13;5014706;28;20022;-62
2021/09/27 04:21:24;;;;;;;7.22;3.83;;;;;;;24.99;49.59;101190.41;4997368;28;20075;-62
2021/09/27 04:24:31;;;;;;;17.75;4.50;;;;;;;24.99;49.97;101184.09;4997161;28;20061;-62
2021/09/27 04:27:11;;;;;;;11.02;4.15;;;;;;;24.97;49.58;101188.97;5013548;28;20478;-62
2021/09/27 04:29:45;;;;;;;5.82;3.85;;;;;;;24.94;49.68;101182.00;5014409;28;20048;-62
2021/09/27 04:33:08;;;;;;;4.90;3.88;;;;;;;24.93;49.48;101180.31;4997135;28;20041;-63
2021/09/27 04:35:43;;;;;;;7.22;4.13;;;;;;;24.89;49.84;101185.41;4981278;28;20076;-62
2021/09/27 04:38:10;;;;;;;7.20;3.78;;;;;;;24.87;49.75;101179.28;5014344;28;20021;-62
2021/09/27 04:41:07;;;;;;;7.55;3.45;;;;;;;24.85;49.64;101178.66;4997026;28;20035;-62
2021/09/27 04:44:00;;;;;;;4.93;3.67;;;;;;;24.82;49.70;101184.56;5012970;28;20491;-62
2021/09/27 04:46:35;;;;;;;6.13;3.28;;;;;;;24.78;49.86;101183.28;4983873;28;20038;-62
2021/09/27 04:49:02;;;;;;;6.95;3.50;;;;;;;24.79;49.83;101184.97;4997039;28;20084;-62
2021/09/27 04:51:34;;;;;;;6.32;4.15;;;;;;;24.78;49.35;101185.16;4997412;28;20025;-62
2021/09/27 04:54:15;;;;;;;7.25;4.30;;;;;;;24.72;49.71;101178.66;4997420;28;20478;-62
2021/09/27 04:57:03;;;;;;;7.25;4.28;;;;;;;24.72;49.74;101178.66;4997283;28;20403;-62
2021/09/27 04:59:51;;;;;;;10.27;5.13;;;;;;;24.69;49.79;101186.44;5013365;28;20075;-62
2021/09/27 05:02:40;;;;;;;7.35;4.32;;;;;;;24.66;49.95;101181.38;5014174;28;20037;-62
2021/09/27 05:05:21;;;;;;;8.15;5.35;;;;;;;24.63;50.00;101179.06;5014245;28;20095;-62
2021/09/27 05:07:55;;;;;;;6.13;4.38;;;;;;;24.52;49.69;101172.34;4996933;28;20018;-62
2021/09/27 05:10:39;;;;;;;6.13;3.95;;;;;;;24.56;49.52;101173.63;5014111;28;20057;-62
2021/09/27 05:13:17;;;;;;;7.43;3.53;;;;;;;24.54;50.27;101180.38;5013931;28;20474;-61
2021/09/27 05:16:11;;;;;;;7.00;5.00;;;;;;;24.52;49.66;101175.06;4980549;28;20072;-64
2021/09/27 05:19:08;;;;;;;8.68;3.80;;;;;;;24.52;49.52;101176.97;5013764;28;20052;-61
2021/09/27 05:22:18;;;;;;;11.88;4.70;;;;;;;24.50;49.41;101177.19;5001911;28;20046;-62
2021/09/27 05:25:05;;;;;;;11.73;5.05;;;;;;;24.48;49.44;101165.63;4980452;28;20056;-61
2021/09/27 05:27:35;;;;;;;9.48;4.63;;;;;;;24.47;49.65;101171.28;4992371;28;20046;-61
2021/09/27 05:30:10;;;;;;;6.70;4.40;;;;;;;24.47;50.19;101166.66;4992759;28;20022;-62
2021/09/27 05:32:39;;;;;;;6.03;4.18;;;;;;;24.48;50.19;101170.25;4993248;28;20033;-61
2021/09/27 05:35:34;;;;;;;10.55;5.88;;;;;;;24.50;49.83;101166.25;4993961;28;20415;-61
2021/09/27 05:38:10;;;;;;;8.15;5.32;;;;;;;24.50;49.76;101155.28;4993909;28;20026;-61
2021/09/27 05:40:49;;;;;;;11.10;5.97;;;;;;;24.53;49.48;101165.81;4993877;28;20046;-61
2021/09/27 05:43:39;;;;;;;8.25;5.13;;;;;;;24.56;49.80;101161.81;4993903;28;20092;-61
2021/09/27 05:46:40;;;;;;;9.15;5.22;;;;;;;24.56;49.58;101165.41;4993870;28;20109;-61
2021/09/27 05:49:14;;;;;;;8.57;5.22;;;;;;;24.58;49.70;101171.50;4982284;28;20077;-61
2021/09/27 05:51:51;;;;;;;10.10;5.68;;;;;;;24.60;50.35;101163.91;4993570;28;20022;-61
2021/09/27 05:54:31;;;;;;;8.73;5.60;;;;;;;24.60;49.96;101168.53;4992420;28;20085;-63
2021/09/27 05:57:08;;;;;;;10.65;5.35;;;;;;;24.60;50.30;101163.91;4976184;28;20034;-64
2021/09/27 05:59:57;;;;;;;9.07;5.28;;;;;;;24.64;50.49;101165.16;4994486;28;20120;-64
2021/09/27 06:02:58;;;;;;;6.35;4.53;;;;;;;24.64;49.77;101167.91;4997917;28;20022;-64
2021/09/27 06:05:41;;;;;;;6.93;4.45;;;;;;;24.63;50.12;101163.47;4980701;28;20133;-63
2021/09/27 06:08:15;;;;;;;9.88;4.65;;;;;;;24.66;49.62;101165.78;4996704;28;20068;-63
2021/09/27 06:11:39;;;;;;;8.30;4.53;;;;;;;24.66;49.79;101140.28;4996505;28;20065;-63
2021/09/27 06:14:05;;;;;;;8.07;5.05;;;;;;;24.66;49.75;101143.03;4940783;29;20043;-63
2021/09/27 06:16:55;;;;;;;5.60;3.88;;;;;;;24.73;49.44;101152.94;4968346;28;20038;-63
2021/09/27 06:19:26;;;;;;;12.73;5.40;;;;;;;24.75;49.31;101139.84;4996627;28;20073;-62
2021/09/27 06:21:54;;;;;;;8.07;4.63;;;;;;;24.85;50.07;101140.28;4997686;28;20081;-61
2021/09/27 06:24:44;;;;;;;13.63;6.57;;;;;;;25.00;49.41;101140.03;4998170;28;20032;-61
2021/09/27 06:27:28;;;;;;;8.68;4.53;;;;;;;25.17;49.15;101137.66;5012614;28;20084;-63
2021/09/27 06:30:15;;;;;;;6.82;4.47;;;;;;;25.31;49.25;101137.38;5016913;28;20536;-62
2021/09/27 06:32:51;;;;;;;8.43;4.57;;;;;;;25.47;48.93;101144.28;5016983;28;20080;-61
2021/09/27 06:35:20;;;;;;;7.18;4.13;;;;;;;25.58;48.67;101140.84;5000012;28;20040;-61
2021/09/27 06:37:46;;;;;;;5.72;4.15;;;;;;;25.71;48.82;101137.22;5000629;28;20025;-61
2021/09/27 06:40:12;;;;;;;7.35;4.05;;;;;;;25.74;48.89;101134.84;5019135;28;20022;-61
2021/09/27 06:42:38;;;;;;;7.93;4.30;;;;;;;25.82;48.80;101134.59;5001714;28;20471;-61
2021/09/27 06:45:06;;;;;;;5.10;3.55;;;;;;;25.83;49.05;101130.78;5018879;28;20036;-61
2021/09/27 06:47:31;;;;;;;5.22;3.88;;;;;;;25.85;48.63;101136.88;5018346;28;20028;-61
2021/09/27 06:49:57;;;;;;;6.60;4.13;;;;;;;25.95;48.01;101130.91;4983798;28;20030;-61
2021/09/27 06:52:22;;;;;;;4.70;3.55;;;;;;;26.13;48.01;101139.19;5017386;28;20417;-62
2021/09/27 06:54:47;;;;;;;5.13;3.88;;;;;;;26.25;47.65;101133.88;5000283;28;20104;-61
2021/09/27 06:57:13;;;;;;;7.50;4.03;;;;;;;26.34;47.80;101122.38;5017009;28;20060;-62
2021/09/27 06:59:38;;;;;;;7.55;4.60;;;;;;;26.43;47.72;101123.78;5016974;28;20032;-61
2021/09/27 07:02:04;;;;;;;6.57;3.50;;;;;;;26.48;47.77;101120.34;5016195;28;20033;-61
2021/09/27 07:04:30;;;;;;;6.43;3.70;;;;;;;26.53;47.92;101115.00;5015987;28;20034;-61
2021/09/27 07:06:56;;;;;;;6.13;3.10;;;;;;;26.48;47.82;101106.59;5016200;28;20425;-61
2021/09/27 07:09:21;;;;;;;4.45;3.45;;;;;;;26.57;47.38;101116.25;5015944;28;20022;-61
2021/09/27 07:11:47;;;;;;;5.72;3.92;;;;;;;26.58;47.94;101117.91;5014650;28;20062;-62
2021/09/27 07:14:12;;;;;;;6.25;3.40;;;;;;;26.60;47.17;101102.88;5016162;28;20038;-62
2021/09/27 07:16:38;;;;;;;7.45;4.50;;;;;;;26.66;47.39;101114.88;5015963;28;20398;-62
2021/09/27 07:19:08;;;;;;;6.03;3.25;;;;;;;26.70;47.22;101116.09;5015969;28;20108;-62
2021/09/27 07:21:35;;;;;;;7.25;3.47;;;;;;;26.76;47.46;101106.94;4998290;28;20054;-61
2021/09/27 07:24:01;;;;;;;5.55;3.17;;;;;;;26.85;47.29;101119.38;5015880;28;20112;-62
2021/09/27 07:26:27;;;;;;;5.15;3.20;;;;;;;26.96;46.69;101107.59;5015130;28;20130;-61
2021/09/27 07:28:53;;;;;;;6.32;2.85;;;;;;;27.14;47.15;101106.72;5015948;28;20033;-61
2021/09/27 07:31:20;;;;;;;6.20;2.95;;;;;;;27.14;46.80;101090.22;5015900;28;20026;-61
2021/09/27 07:33:46;;;;;;;2.95;2.42;;;;;;;27.17;46.46;101098.84;5015858;28;20371;-61
2021/09/27 07:36:12;;;;;;;5.00;2.95;;;;;;;27.19;46.30;101096.72;5014782;28;20386;-61
2021/09/27 07:38:37;;;;;;;5.85;2.47;;;;;;;27.25;46.79;101094.13;5015621;28;20022;-62
2021/09/27 07:41:03;;;;;;;4.80;2.40;;;;;;;27.29;46.16;101092.56;5015721;28;20052;-61
2021/09/27 07:43:29;;;;;;;8.13;1.80;;;;;;;27.41;45.95;101088.00;5015688;28;20034;-62
2021/09/27 07:45:54;;;;;;;9.43;2.22;;;;;;;27.51;46.28;101088.28;4998195;28;20044;-61
2021/09/27 07:48:20;;;;;;;4.40;2.13;;;;;;;27.72;46.34;101090.50;5015225;28;20026;-62
2021/09/27 07:50:48;;;;;;;5.20;2.40;;;;;;;27.90;45.54;101095.94;5015633;28;20092;-61
2021/09/27 07:53:14;;;;;;;5.65;2.08;;;;;;;27.97;45.29;101096.69;5015461;28;20061;-61
2021/09/27 07:55:40;;;;;;;5.60;2.40;;;;;;;28.11;45.59;101095.38;4998267;28;20104;-61
2021/09/27 07:58:05;;;;;;;4.03;1.98;;;;;;;28.12;45.54;101105.34;5015183;28;20030;-61
2021/09/27 08:00:31;;;;;;;2.83;1.90;;;;;;;28.16;45.57;101105.72;5015171;28;20056;-61
2021/09/27 08:02:56;;;;;;;2.92;1.98;;;;;;;28.26;45.07;101109.56;5014196;28;20044;-61
2021/09/27 08:05:26;;;;;;;4.00;2.45;;;;;;;28.34;44.58;101099.25;5015392;28;20037;-62
2021/09/27 08:07:52;;;;;;;7.35;3.25;;;;;;;28.44;44.38;101099.50;5014854;28;20042;-62
2021/09/27 08:10:18;;;;;;;2.75;2.25;;;;;;;28.41;45.26;101102.72;5015086;28;20030;-62
2021/09/27 08:12:44;;;;;;;3.97;2.42;;;;;;;28.27;44.63;101105.72;5014971;28;20065;-62
2021/09/27 08:15:13;;;;;;;3.75;2.22;;;;;;;28.24;45.50;101111.72;5015241;28;20026;-61
2021/09/27 08:17:39;;;;;;;4.95;1.75;;;;;;;28.23;45.21;101107.28;5015065;28;20080;-61
2021/09/27 08:20:07;;;;;;;3.03;1.75;;;;;;;28.14;44.40;101102.38;5013703;28;20030;-62
2021/09/27 08:22:32;;;;;;;2.35;1.60;;;;;;;28.08;45.20;101098.66;5014495;28;20033;-61
2021/09/27 08:24:58;;;;;;;2.47;1.60;;;;;;;28.06;45.35;101110.94;5013872;28;20025;-61
2021/09/27 08:27:23;;;;;;;2.45;1.80;;;;;;;28.00;44.43;101098.94;5013437;28;20046;-61
2021/09/27 08:29:48;;;;;;;7.30;2.30;;;;;;;27.93;45.09;101095.47;5013611;28;20026;-61
2021/09/27 08:32:14;;;;;;;1.83;1.60;;;;;;;27.89;45.16;101102.50;5014832;28;20115;-61
2021/09/27 08:34:41;;;;;;;3.03;1.70;;;;;;;27.91;44.53;101103.13;5014559;28;20034;-62
2021/09/27 08:37:07;;;;;;;3.03;1.90;;;;;;;27.96;44.34;101105.16;5014541;28;20026;-61
2021/09/27 08:39:33;;;;;;;3.35;1.80;;;;;;;27.94;44.23;101099.06;5014545;28;20393;-61
2021/09/27 08:42:03;;;;;;;5.15;1.77;;;;;;;27.90;44.80;101112.44;5014359;28;20115;-61
2021/09/27 08:44:50;;;;;;;3.08;1.83;;;;;;;27.89;44.41;101110.75;4997224;28;20030;-61
2021/09/27 08:47:26;;;;;;;2.90;1.67;;;;;;;27.85;45.31;101123.34;4997346;28;20022;-61
2021/09/27 08:49:55;;;;;;;5.43;1.75;;;;;;;27.83;44.66;101111.72;4987771;28;20026;-61
2021/09/27 08:52:23;;;;;;;5.88;1.95;;;;;;;27.83;44.25;101103.47;4977940;28;20054;-61
2021/09/27 08:54:51;;;;;;;2.33;1.55;;;;;;;27.89;45.36;101099.75;4994892;28;20069;-62
2021/09/27 08:57:27;;;;;;;4.35;1.90;;;;;;;28.12;44.94;101101.75;4994794;28;20414;-62
2021/09/27 09:00:01;;;;;;;2.63;1.55;;;;;;;28.34;44.64;101104.78;4977490;28;20022;-61
2021/09/27 09:03:05;;;;;;;5.38;1.65;;;;;;;28.57;44.43;101110.28;4994744;28;20034;-62
2021/09/27 09:05:38;;;;;;;3.47;1.33;;;;;;;29.13;42.83;101101.34;4975695;28;20475;-61
2021/09/27 09:08:17;;;;;;;3.67;1.88;;;;;;;29.54;42.89;101094.75;4977235;28;20022;-61
2021/09/27 09:10:49;;;;;;;4.07;1.40;;;;;;;29.75;41.99;101097.63;4994583;28;20033;-61
2021/09/27 09:13:16;;;;;;;;;;;;;;;29.83;42.78;101104.69;4994604;28;20165;-62
2021/09/27 09:15:43;;;;;;;3.03;1.50;;;;;;;29.91;41.89;101096.84;4977139;28;19924;-61
2021/09/27 09:18:14;;;;;;;5.95;1.23;;;;;;;30.40;41.74;101100.72;4977132;28;20037;-62
2021/09/27 09:20:48;;;;;;;2.47;1.15;;;;;;;30.22;41.98;101100.09;4994178;28;20080;-61
2021/09/27 09:23:52;;;;;;;5.88;1.15;;;;;;;29.86;42.75;101112.50;4994377;28;20029;-61
2021/09/27 09:26:21;;;;;;;4.30;1.17;;;;;;;29.55;42.34;101118.50;4977158;28;20054;-62
2021/09/27 09:28:49;;;;;;;2.60;1.38;;;;;;;29.32;42.58;101109.22;4994095;28;20027;-61
2021/09/27 09:31:46;;;;;;;1.40;0.80;;;;;;;29.18;43.00;101118.84;4960640;28;20041;-62
2021/09/27 09:34:17;;;;;;;5.72;1.55;;;;;;;29.07;42.51;101122.47;4985670;28;20061;-61
2021/09/27 09:36:42;;;;;;;2.78;1.25;;;;;;;28.98;43.03;101115.63;4994451;28;20057;-61
2021/09/27 09:39:17;;;;;;;1.63;1.00;;;;;;;28.99;42.44;101117.34;4977190;28;20050;-61
2021/09/27 09:41:50;;;;;;;4.72;1.30;;;;;;;28.95;42.47;101124.41;4994174;28;20026;-61
2021/09/27 09:44:29;;;;;;;3.45;1.27;;;;;;;28.87;42.45;101127.53;4993909;28;20030;-61
2021/09/27 09:47:08;;;;;;;6.03;1.70;;;;;;;28.71;43.60;101122.75;4976923;28;20045;-61
2021/09/27 09:49:57;;;;;;;2.60;1.35;;;;;;;28.58;42.77;101123.00;4994140;28;20056;-61
2021/09/27 09:52:45;;;;;;;4.10;1.25;;;;;;;28.50;43.68;101126.94;4976969;28;20089;-61
2021/09/27 09:55:31;;;;;;;4.05;1.42;;;;;;;28.45;43.28;101118.53;4993356;28;20038;-62
2021/09/27 09:58:30;;;;;;;2.55;1.20;;;;;;;28.30;43.29;101104.41;4976611;28;20023;-61
2021/09/27 10:01:00;;;;;;;1.90;1.00;;;;;;;28.34;42.95;101111.09;4994160;28;20360;-62
2021/09/27 10:03:30;;;;;;;2.45;1.30;;;;;;;28.38;43.77;101123.34;4976952;28;20023;-61
2021/09/27 10:06:01;;;;;;;6.82;1.67;;;;;;;28.38;43.42;101116.97;4976532;28;20037;-62
2021/09/27 10:08:27;;;;;;;4.60;1.40;;;;;;;28.44;43.52;101105.84;4976493;28;20374;-62
2021/09/27 10:11:13;;;;;;;4.55;1.20;;;;;;;28.64;42.81;101105.53;4993982;28;20031;-62
2021/09/27 10:13:43;;;;;;;1.75;1.20;;;;;;;28.75;42.25;101093.63;4975372;28;20783;-62
2021/09/27 10:16:43;;;;;;;2.00;1.08;;;;;;;28.82;42.01;101094.31;4993998;28;20442;-61
2021/09/27 10:19:31;;;;;;;2.28;0.90;;;;;;;28.91;42.11;101089.28;4973506;28;20034;-62
2021/09/27 10:21:59;;;;;;;2.80;1.83;;;;;;;29.48;41.30;101093.81;4993568;28;20019;-62
2021/09/27 10:24:46;;;;;;;1.42;1.20;;;;;;;29.44;42.32;101096.22;4976380;28;20022;-63
2021/09/27 10:27:36;;;;;;;4.55;1.33;;;;;;;29.41;41.86;101093.94;4973070;28;20532;-61
2021/09/27 10:30:18;;;;;;;7.05;2.35;;;;;;;29.44;41.69;101093.47;4974380;28;20023;-61
2021/09/27 10:32:47;;;;;;;1.70;0.95;;;;;;;29.47;42.42;101088.53;4973260;28;20031;-62
2021/09/27 10:35:32;;;;;;;3.13;1.27;;;;;;;29.51;41.52;101095.25;4972864;28;20058;-61
2021/09/27 10:38:12;;;;;;;1.38;1.25;;;;;;;29.35;41.69;101081.13;4973084;28;20034;-62
2021/09/27 10:40:39;;;;;;;2.40;1.30;;;;;;;29.21;42.41;101101.78;4973147;28;20044;-61
2021/09/27 10:43:13;;;;;;;1.25;1.15;;;;;;;29.03;42.21;101096.47;4974135;28;20023;-62
2021/09/27 10:45:42;;;;;;;3.15;0.95;;;;;;;28.86;43.07;101101.06;4976342;28;20391;-62
2021/09/27 10:48:08;;;;;;;2.15;1.20;;;;;;;28.68;42.47;101098.41;4977807;28;20034;-62
2021/09/27 10:50:42;;;;;;;1.77;1.40;;;;;;;28.67;42.75;101102.28;4960474;28;20138;-63
2021/09/27 10:53:22;;;;;;;2.58;1.10;;;;;;;28.84;41.79;101103.19;4977662;28;20026;-62
2021/09/27 10:56:13;;;;;;;4.32;1.02;;;;;;;28.84;41.79;101089.41;4976581;28;20023;-62
2021/09/27 10:58:47;;;;;;;1.77;1.23;;;;;;;28.86;42.86;101081.75;4976368;28;20117;-62
2021/09/27 11:01:35;;;;;;;3.20;1.23;;;;;;;28.90;41.75;101082.91;4977811;28;20019;-61
2021/09/27 11:04:01;;;;;;;3.53;1.40;;;;;;;28.90;41.70;101082.91;4977378;28;20094;-63
2021/09/27 11:06:49;;;;;;;1.38;1.15;;;;;;;28.90;41.50;101066.38;4977461;28;20034;-62
2021/09/27 11:09:29;;;;;;;1.00;0.90;;;;;;;28.74;41.59;101056.09;4976366;28;20110;-60
2021/09/27 11:12:06;;;;;;;3.17;0.95;;;;;;;28.65;42.72;101074.09;4977433;28;20458;-62
2021/09/27 11:14:51;;;;;;;2.25;1.00;;;;;;;28.56;42.94;101070.00;4977584;28;20130;-62
2021/09/27 11:17:29;;;;;;;3.67;1.25;;;;;;;28.54;41.95;101067.47;4976185;28;20069;-62
2021/09/27 11:20:07;;;;;;;2.88;1.10;;;;;;;28.48;42.50;101075.88;4977358;28;20034;-62
2021/09/27 11:22:55;;;;;;;6.35;1.27;;;;;;;28.45;42.26;101085.47;4976400;28;20038;-62
2021/09/27 11:25:21;;;;;;;1.88;0.95;;;;;;;28.41;42.43;101067.75;4976997;28;20089;-63
2021/09/27 11:28:09;;;;;;;3.88;1.02;;;;;;;28.34;42.96;101060.69;4997044;28;20033;-61
2021/09/27 11:31:05;;;;;;;0.95;0.90;;;;;;;28.30;43.03;101066.66;4996722;28;20081;-61
2021/09/27 11:33:30;;;;;;;2.97;1.05;;;;;;;28.31;42.00;101067.47;4979813;28;20454;-62
2021/09/27 11:36:06;;;;;;;1.67;1.00;;;;;;;28.34;42.01;101055.16;4996376;28;20057;-63
2021/09/27 11:39:08;;;;;;;1.67;0.90;;;;;;;28.39;41.95;101058.03;4996404;28;20109;-62
2021/09/27 11:41:36;;;;;;;2.30;1.08;;;;;;;28.39;41.88;101053.38;4984012;28;20031;-63
2021/09/27 11:44:28;;;;;;;2.22;1.17;;;;;;;28.41;41.95;101047.59;4996156;28;20042;-62
2021/09/27 11:47:15;;;;;;;2.50;1.33;;;;;;;28.37;42.46;101040.88;4996380;28;20042;-62
2021/09/27 11:49:58;;;;;;;4.55;1.20;;;;;;;28.31;41.95;101026.97;4980235;28;20557;-62
2021/09/27 11:52:26;;;;;;;3.97;1.20;;;;;;;28.31;42.00;101029.75;4996270;28;20113;-62
2021/09/27 11:55:12;;;;;;;5.40;1.48;;;;;;;28.34;42.58;101019.34;4978787;28;20034;-61
2021/09/27 11:58:00;;;;;;;1.65;1.15;;;;;;;28.39;42.81;101027.72;4961925;28;20084;-61
2021/09/27 12:00:29;;;;;;;1.05;1.05;;;;;;;28.40;42.70;101021.94;4962333;28;20022;-61
2021/09/27 12:02:57;;;;;;;7.07;1.25;;;;;;;28.50;42.21;101021.34;4996323;28;20031;-61
2021/09/27 12:05:31;;;;;;;3.03;1.00;;;;;;;28.59;41.74;101019.88;4995873;28;20029;-61